createdAt,value
2022-11-07T00:02:43.399Z,5.60
2022-11-07T00:08:09.605Z,5.28
2022-11-07T00:13:35.008Z,6.20
2022-11-07T00:19:05.093Z,3.63
2022-11-07T00:24:34.981Z,9.25
2022-11-07T00:30:01.753Z,5.00
2022-11-07T00:35:26.312Z,6.45
2022-11-07T00:40:57.728Z,5.65
2022-11-07T00:46:27.332Z,4.43
2022-11-07T00:51:57.320Z,5.43
2022-11-07T00:57:27.069Z,10.15
2022-11-07T01:03:10.335Z,6.25
2022-11-07T01:08:39.866Z,12.90
2022-11-07T01:14:10.021Z,7.43
2022-11-07T01:19:38.708Z,5.43
2022-11-07T01:25:10.667Z,7.03
2022-11-07T01:30:40.598Z,7.25
2022-11-07T01:36:12.487Z,6.15
2022-11-07T01:41:38.826Z,6.55
2022-11-07T01:47:08.324Z,7.28
2022-11-07T01:52:40.300Z,7.10
2022-11-07T01:58:09.153Z,7.40
2022-11-07T02:03:38.883Z,7.00
2022-11-07T02:09:02.975Z,11.65
2022-11-07T02:14:29.317Z,7.82
2022-11-07T02:19:58.512Z,5.43
2022-11-07T02:25:25.136Z,8.00
2022-11-07T02:30:53.637Z,6.88
2022-11-07T02:36:20.934Z,6.70
2022-11-07T02:41:47.191Z,5.78
2022-11-07T02:47:10.712Z,6.97
2022-11-07T02:52:39.788Z,6.00
2022-11-07T02:58:06.620Z,7.97
2022-11-07T03:03:32.421Z,6.13
2022-11-07T03:09:02.109Z,4.03
2022-11-07T03:14:26.647Z,4.20
2022-11-07T03:19:50.527Z,7.28
2022-11-07T03:25:19.816Z,5.38
2022-11-07T03:30:53.895Z,5.32
2022-11-07T03:36:17.159Z,6.13
2022-11-07T03:41:45.995Z,3.97
2022-11-07T03:47:11.997Z,6.38
2022-11-07T03:52:40.861Z,6.00
2022-11-07T03:58:09.834Z,4.50
2022-11-07T04:03:40.740Z,4.55
2022-11-07T04:09:09.053Z,4.97
2022-11-07T04:14:50.430Z,6.72
2022-11-07T04:20:16.973Z,3.92
2022-11-07T04:26:01.677Z,6.78
2022-11-07T04:31:25.129Z,5.35
2022-11-07T04:36:54.190Z,4.10
2022-11-07T04:42:19.869Z,6.57
2022-11-07T04:47:49.039Z,7.80
2022-11-07T04:53:19.652Z,6.13
2022-11-07T04:58:43.355Z,4.63
2022-11-07T05:04:12.007Z,4.13
2022-11-07T05:09:46.733Z,4.70
2022-11-07T05:15:12.166Z,5.45
2022-11-07T05:20:41.533Z,4.33
2022-11-07T05:26:11.996Z,6.20
2022-11-07T05:31:40.785Z,6.00
2022-11-07T05:37:10.800Z,7.20
2022-11-07T05:42:36.592Z,5.28
2022-11-07T05:48:01.899Z,4.95
2022-11-07T05:53:30.980Z,5.20
2022-11-07T05:58:55.815Z,5.75
2022-11-07T06:04:19.757Z,5.45
2022-11-07T06:09:48.803Z,5.20
2022-11-07T06:15:15.247Z,10.13
2022-11-07T06:20:38.797Z,4.95
2022-11-07T06:26:04.549Z,10.13
2022-11-07T06:31:35.531Z,3.85
2022-11-07T06:37:03.091Z,5.03
2022-11-07T06:42:29.827Z,7.72
2022-11-07T06:47:56.446Z,6.93
2022-11-07T06:53:25.716Z,5.70
2022-11-07T06:58:55.032Z,6.10
2022-11-07T07:04:25.461Z,7.37
2022-11-07T07:09:50.887Z,4.72
2022-11-07T07:15:13.297Z,6.43
2022-11-07T07:20:43.372Z,6.75
2022-11-07T07:26:10.074Z,4.20
2022-11-07T07:31:38.967Z,6.78
2022-11-07T07:37:04.242Z,7.10
2022-11-07T07:42:33.284Z,13.50
2022-11-07T07:48:02.629Z,10.93
2022-11-07T07:53:33.425Z,13.13
2022-11-07T08:04:32.174Z,4.35
2022-11-07T08:10:27.108Z,4.00
2022-11-07T08:15:54.612Z,3.72
2022-11-07T08:21:23.737Z,3.05
2022-11-07T08:26:54.736Z,5.38
2022-11-07T08:32:24.462Z,4.55
2022-11-07T08:37:53.777Z,4.30
2022-11-07T08:43:24.807Z,5.38
2022-11-07T08:48:53.674Z,6.88
2022-11-07T08:54:25.761Z,10.65
2022-11-07T08:59:58.462Z,3.25
2022-11-07T09:05:28.203Z,6.70
2022-11-07T09:11:02.271Z,3.97
2022-11-07T09:16:32.557Z,3.83
2022-11-07T09:22:00.975Z,7.10
2022-11-07T09:27:29.789Z,2.80
2022-11-07T09:33:01.602Z,4.78
2022-11-07T09:38:32.603Z,4.20
2022-11-07T09:44:32.361Z,11.63
2022-11-07T09:50:08.631Z,4.22
2022-11-07T09:55:40.001Z,9.65
2022-11-07T10:01:14.813Z,2.70
2022-11-07T10:06:49.322Z,4.07
2022-11-07T10:12:31.875Z,6.32
2022-11-07T10:18:08.249Z,8.65
2022-11-07T10:23:54.193Z,5.65
2022-11-07T10:29:24.496Z,3.42
2022-11-07T10:35:02.791Z,4.53
2022-11-07T10:40:38.555Z,5.18
2022-11-07T10:46:17.160Z,5.40
2022-11-07T10:51:46.830Z,6.80
2022-11-07T10:57:20.062Z,4.22
2022-11-07T11:02:50.187Z,26.42
2022-11-07T11:08:22.784Z,9.57
2022-11-07T11:14:03.311Z,4.35
2022-11-07T11:19:40.818Z,9.68
2022-11-07T11:25:19.275Z,3.67
2022-11-07T11:30:55.965Z,14.75
2022-11-07T11:36:28.578Z,8.00
2022-11-07T11:41:59.957Z,9.07
2022-11-07T11:47:38.203Z,8.05
2022-11-07T11:53:12.697Z,5.32
2022-11-07T11:58:48.642Z,8.30
2022-11-07T12:04:47.660Z,12.57
2022-11-07T12:10:25.060Z,8.60
2022-11-07T12:16:09.832Z,8.60
2022-11-07T12:21:52.215Z,10.50
2022-11-07T12:27:30.456Z,20.77
2022-11-07T12:33:10.956Z,10.55
2022-11-07T12:38:59.944Z,9.88
2022-11-07T12:44:53.083Z,15.90
2022-11-07T12:50:34.387Z,20.88
2022-11-07T12:56:13.596Z,19.52
2022-11-07T13:01:49.129Z,11.57
2022-11-07T13:07:26.340Z,13.25
2022-11-07T13:13:02.286Z,12.40
2022-11-07T13:18:30.850Z,10.43
2022-11-07T13:24:06.964Z,15.07
2022-11-07T13:29:39.427Z,10.85
2022-11-07T13:35:10.401Z,11.70
2022-11-07T13:40:41.141Z,19.15
2022-11-07T13:46:19.376Z,16.48
2022-11-07T13:51:50.358Z,17.67
2022-11-07T13:57:23.233Z,9.20
2022-11-07T14:02:55.629Z,8.43
2022-11-07T14:08:29.195Z,6.32
2022-11-07T14:13:58.177Z,8.05
2022-11-07T14:19:30.324Z,8.23
2022-11-07T14:24:59.289Z,8.30
2022-11-07T14:30:29.732Z,16.53
2022-11-07T14:36:06.717Z,6.90
2022-11-07T14:41:38.758Z,7.93
2022-11-07T14:47:09.085Z,8.38
2022-11-07T14:52:49.336Z,8.48
2022-11-07T15:03:54.385Z,13.25
2022-11-07T15:09:35.660Z,14.60
2022-11-07T15:15:12.154Z,25.30
2022-11-07T15:20:40.980Z,10.98
2022-11-07T15:26:22.003Z,8.70
2022-11-07T15:31:51.658Z,6.72
2022-11-07T15:37:22.584Z,8.40
2022-11-07T15:42:53.872Z,7.57
2022-11-07T15:48:25.150Z,7.75
2022-11-07T15:53:53.812Z,16.20
2022-11-07T15:59:24.996Z,18.40
2022-11-07T16:04:54.113Z,11.43
2022-11-07T16:10:25.800Z,11.35
2022-11-07T16:15:59.488Z,13.63
2022-11-07T16:21:27.887Z,16.45
2022-11-07T16:26:56.984Z,8.75
2022-11-07T16:32:27.895Z,8.82
2022-11-07T16:38:00.084Z,11.90
2022-11-07T16:43:30.135Z,10.68
2022-11-07T16:49:07.848Z,8.05
2022-11-07T16:54:37.145Z,11.25
2022-11-07T17:00:07.037Z,10.47
2022-11-07T17:05:38.197Z,8.63
2022-11-07T17:11:09.725Z,12.68
2022-11-07T17:16:44.726Z,10.90
2022-11-07T17:22:17.827Z,12.25
2022-11-07T17:27:47.367Z,9.32
2022-11-07T17:33:15.864Z,9.30
2022-11-07T17:38:46.898Z,11.95
2022-11-07T17:44:16.857Z,18.65
2022-11-07T17:49:47.061Z,10.30
2022-11-07T17:55:19.574Z,12.32
2022-11-07T18:00:52.050Z,15.05
2022-11-07T18:06:23.578Z,12.98
2022-11-07T18:12:02.529Z,14.63
2022-11-07T18:17:36.655Z,29.60
2022-11-07T18:23:05.709Z,19.45
2022-11-07T18:28:39.847Z,15.75
2022-11-07T18:34:11.689Z,15.63
2022-11-07T18:39:43.457Z,18.33
2022-11-07T18:45:21.509Z,21.27
2022-11-07T18:50:53.204Z,14.93
2022-11-07T18:56:23.668Z,24.67
2022-11-07T19:01:56.416Z,19.88
2022-11-07T19:07:26.658Z,17.15
2022-11-07T19:12:58.539Z,15.90
2022-11-07T19:24:06.377Z,29.85
2022-11-07T19:29:36.338Z,23.58
2022-11-07T19:35:12.593Z,34.22
2022-11-07T19:40:43.562Z,40.85
2022-11-07T19:46:15.802Z,31.17
2022-11-07T19:51:47.511Z,32.67
2022-11-07T19:57:18.035Z,46.65
2022-11-07T20:08:20.600Z,30.58
2022-11-07T20:13:50.319Z,25.13
2022-11-07T20:19:19.130Z,30.85
2022-11-07T20:24:50.712Z,34.50
2022-11-07T20:30:20.482Z,31.23
2022-11-07T20:36:02.608Z,39.42
2022-11-07T20:41:32.875Z,53.65
2022-11-07T20:47:11.926Z,29.67
2022-11-07T20:52:42.599Z,25.80
2022-11-07T20:58:13.671Z,41.67
2022-11-07T21:03:43.137Z,50.85
2022-11-07T21:09:12.435Z,47.70
2022-11-07T21:14:44.819Z,48.60
2022-11-07T21:20:14.995Z,29.55
2022-11-07T21:25:47.853Z,23.15
2022-11-07T21:31:21.853Z,20.45
2022-11-07T21:36:51.231Z,19.83
2022-11-07T21:42:20.170Z,20.97
2022-11-07T21:47:50.521Z,30.17
2022-11-07T21:58:47.942Z,20.52
2022-11-07T22:04:18.274Z,21.30
2022-11-07T22:09:47.044Z,23.13
2022-11-07T22:15:16.319Z,26.63
2022-11-07T22:20:46.644Z,26.50
2022-11-07T22:26:18.815Z,16.55
2022-11-07T22:31:48.132Z,18.95
2022-11-07T22:37:18.453Z,21.53
2022-11-07T22:42:47.097Z,17.52
2022-11-07T22:48:16.146Z,15.93
2022-11-07T22:53:47.739Z,19.30
2022-11-07T22:59:16.963Z,24.15
2022-11-07T23:04:46.180Z,20.17
2022-11-07T23:10:17.037Z,14.00
2022-11-07T23:15:46.228Z,42.97
2022-11-07T23:21:15.326Z,30.67
2022-11-07T23:26:45.603Z,36.78
2022-11-07T23:32:14.416Z,39.85
2022-11-07T23:37:43.191Z,32.78
2022-11-07T23:43:13.427Z,31.80
2022-11-07T23:48:59.852Z,57.58
2022-11-07T23:54:46.654Z,33.95
